Time;durP1;ratioP1;P1;durP2;ratioP2;P2;SDS_P1;SDS_P2;PMS_P1;PMS_P2;Temp;Humidity;BMP_temperature;BMP_pressure;BME280_temperature;BME280_humidity;BME280_pressure;Samples;Min_cycle;Max_cycle;Signal;HPM_P1;HPM_P2
2023/05/01 00:01:24;;;;;;;5.20;2.40;;;9.20;99.90;;;;;;4056745;29;20065;-86
2023/05/01 00:03:26;;;;;;;10.35;3.95;;;9.10;99.90;;;;;;4042131;29;20131;-86
2023/05/01 00:05:27;;;;;;;7.47;3.28;;;9.00;99.90;;;;;;4039979;29;20044;-86
2023/05/01 00:07:30;;;;;;;5.97;3.35;;;9.00;99.90;;;;;;4057325;29;20068;-87
2023/05/01 00:09:31;;;;;;;8.18;2.65;;;9.00;99.90;;;;;;4051907;29;20504;-86
2023/05/01 00:11:36;;;;;;;6.53;2.55;;;8.90;99.90;;;;;;4042154;29;20059;-86
2023/05/01 00:13:37;;;;;;;6.82;2.58;;;8.80;99.90;;;;;;4042055;29;20071;-85
2023/05/01 00:15:41;;;;;;;6.30;3.15;;;8.90;99.90;;;;;;4041524;29;20053;-86
2023/05/01 00:17:43;;;;;;;9.40;3.58;;;8.90;99.90;;;;;;4042821;29;20483;-85
2023/05/01 00:19:44;;;;;;;6.85;3.03;;;8.90;99.90;;;;;;4042374;29;20132;-85
2023/05/01 00:21:47;;;;;;;10.23;4.78;;;8.90;99.90;;;;;;4058002;29;20044;-85
2023/05/01 00:23:47;;;;;;;5.47;2.53;;;8.90;99.90;;;;;;4056374;29;20100;-85
2023/05/01 00:25:49;;;;;;;5.63;2.80;;;8.80;99.90;;;;;;4040983;29;20053;-86
2023/05/01 00:27:50;;;;;;;10.20;3.25;;;8.80;99.90;;;;;;4055978;29;20045;-85
2023/05/01 00:29:51;;;;;;;4.60;2.42;;;8.80;99.90;;;;;;4040982;29;20528;-86
2023/05/01 00:31:54;;;;;;;5.80;2.90;;;7.70;99.90;;;;;;4057216;29;20081;-85
2023/05/01 00:33:55;;;;;;;7.40;3.30;;;8.80;99.90;;;;;;4056314;29;20049;-85
2023/05/01 00:35:58;;;;;;;6.35;3.22;;;8.50;99.90;;;;;;4057648;29;20494;-85
2023/05/01 00:37:58;;;;;;;5.95;3.50;;;8.80;99.90;;;;;;4056487;29;20076;-85
2023/05/01 00:40:00;;;;;;;5.28;2.85;;;8.80;99.90;;;;;;4048495;29;20049;-86
2023/05/01 00:42:01;;;;;;;7.88;3.50;;;8.80;99.90;;;;;;4041253;29;20168;-86
2023/05/01 00:44:02;;;;;;;6.03;3.17;;;8.80;99.90;;;;;;4041412;29;20080;-86
2023/05/01 00:46:03;;;;;;;8.90;3.08;;;8.80;99.90;;;;;;4037309;29;20049;-86
2023/05/01 00:48:05;;;;;;;6.53;3.20;;;8.70;99.90;;;;;;4056456;29;20474;-85
2023/05/01 00:50:06;;;;;;;6.55;3.47;;;8.70;99.90;;;;;;4044068;29;20533;-85
2023/05/01 00:52:12;;;;;;;5.53;3.03;;;8.70;99.90;;;;;;4023135;29;20429;-86
2023/05/01 00:54:13;;;;;;;5.93;2.97;;;8.70;99.90;;;;;;4032827;29;20494;-86
2023/05/01 00:56:14;;;;;;;5.88;2.85;;;8.70;99.90;;;;;;4055707;29;20052;-86
2023/05/01 00:58:17;;;;;;;5.05;3.15;;;8.70;99.90;;;;;;4038620;29;20692;-86
2023/05/01 01:00:21;;;;;;;5.75;2.90;;;8.60;99.90;;;;;;4056987;29;20044;-86
2023/05/01 01:02:22;;;;;;;8.65;3.72;;;8.60;99.90;;;;;;4038048;29;20498;-86
2023/05/01 01:04:24;;;;;;;4.95;3.08;;;8.80;99.90;;;;;;4039833;29;20445;-86
2023/05/01 01:06:31;;;;;;;7.03;3.10;;;8.60;99.90;;;;;;4053267;29;20057;-86
2023/05/01 01:09:25;;;;;;;7.50;3.50;;;8.60;99.90;;;;;;4040822;29;20048;-86
2023/05/01 01:11:37;;;;;;;6.90;2.67;;;8.60;99.90;;;;;;4015167;29;20065;-86
2023/05/01 01:13:57;;;;;;;4.95;3.05;;;8.60;99.90;;;;;;4049222;29;20056;-86
2023/05/01 01:16:12;;;;;;;4.88;2.67;;;8.60;99.90;;;;;;4056520;29;20048;-86
2023/05/01 01:18:23;;;;;;;6.35;3.25;;;8.50;99.90;;;;;;4036834;29;20427;-85
2023/05/01 01:20:41;;;;;;;6.72;3.17;;;8.50;99.90;;;;;;4055527;29;20450;-86
2023/05/01 01:22:49;;;;;;;12.35;2.78;;;8.50;99.90;;;;;;4041868;29;20490;-86
2023/05/01 01:25:05;;;;;;;8.20;3.15;;;8.50;99.90;;;;;;4040764;29;20453;-86
2023/05/01 01:27:22;;;;;;;8.70;3.13;;;8.50;99.90;;;;;;4039492;29;20053;-86
2023/05/01 01:29:35;;;;;;;5.60;3.22;;;8.40;99.90;;;;;;4042422;29;20520;-86
2023/05/01 01:31:46;;;;;;;5.50;3.22;;;8.50;99.90;;;;;;4041084;29;20060;-86
2023/05/01 01:34:03;;;;;;;7.05;2.95;;;8.40;99.90;;;;;;4025459;29;20053;-86
2023/05/01 01:36:14;;;;;;;7.00;2.88;;;8.40;99.90;;;;;;4038606;29;20049;-86
2023/05/01 01:38:29;;;;;;;6.80;3.00;;;8.40;99.90;;;;;;4056292;29;20048;-86
2023/05/01 01:40:37;;;;;;;6.35;3.00;;;8.40;99.90;;;;;;4039982;29;20120;-87
2023/05/01 01:42:45;;;;;;;10.60;3.60;;;8.40;99.90;;;;;;4056126;29;20598;-86
2023/05/01 01:44:55;;;;;;;7.27;3.10;;;8.40;99.90;;;;;;4041825;29;20117;-86
2023/05/01 01:47:00;;;;;;;7.55;2.97;;;8.40;99.90;;;;;;4041797;29;20052;-86
2023/05/01 01:49:05;;;;;;;5.85;3.38;;;8.40;99.90;;;;;;4041921;29;20084;-86
2023/05/01 01:51:13;;;;;;;7.65;3.67;;;8.40;99.90;;;;;;4041103;29;20053;-87
2023/05/01 01:53:17;;;;;;;6.50;2.80;;;8.30;99.90;;;;;;4050605;29;20041;-84
2023/05/01 01:55:22;;;;;;;7.93;2.90;;;8.30;99.90;;;;;;4038952;29;20510;-87
2023/05/01 01:57:25;;;;;;;6.65;3.35;;;8.30;99.90;;;;;;4046851;29;20406;-86
2023/05/01 01:59:31;;;;;;;5.68;3.22;;;8.30;99.90;;;;;;4022765;29;20093;-86
2023/05/01 02:01:33;;;;;;;12.88;3.40;;;8.20;99.90;;;;;;4048548;29;20072;-86
2023/05/01 02:03:37;;;;;;;6.43;3.08;;;8.40;99.90;;;;;;4038579;29;20045;-85
2023/05/01 02:05:41;;;;;;;8.20;3.10;;;8.20;99.90;;;;;;4050408;29;20517;-86
2023/05/01 02:07:45;;;;;;;5.20;2.97;;;8.20;99.90;;;;;;4040775;29;20109;-86
2023/05/01 02:09:50;;;;;;;5.78;3.17;;;8.10;99.90;;;;;;4043493;29;20044;-85
2023/05/01 02:11:54;;;;;;;10.55;5.03;;;8.30;99.90;;;;;;4056145;29;20052;-86
2023/05/01 02:13:56;;;;;;;11.40;3.10;;;8.10;99.90;;;;;;4039619;29;20069;-86
2023/05/01 02:15:58;;;;;;;5.50;2.65;;;8.20;99.90;;;;;;4054097;29;20041;-86
2023/05/01 02:18:04;;;;;;;6.47;3.28;;;8.20;99.90;;;;;;4056940;29;20084;-85
2023/05/01 02:20:06;;;;;;;8.27;4.13;;;8.10;99.90;;;;;;4053881;29;20326;-85
2023/05/01 02:22:09;;;;;;;8.00;3.28;;;8.10;99.90;;;;;;4055508;29;20055;-85
2023/05/01 02:24:18;;;;;;;6.22;3.25;;;8.10;99.90;;;;;;4253896;27;1290516;-86
2023/05/01 02:26:24;;;;;;;6.60;3.25;;;8.10;99.90;;;;;;4246394;28;20059;-85
2023/05/01 02:28:28;;;;;;;10.63;3.42;;;8.10;99.90;;;;;;4229587;28;20056;-85
2023/05/01 02:30:28;;;;;;;8.05;3.70;;;8.10;99.90;;;;;;4277329;27;20492;-86
2023/05/01 02:32:30;;;;;;;11.27;4.60;;;8.10;99.90;;;;;;4283177;27;20074;-86
2023/05/01 02:34:35;;;;;;;9.75;3.22;;;8.10;99.90;;;;;;4263659;27;20092;-86
2023/05/01 02:36:37;;;;;;;6.70;3.63;;;8.00;99.90;;;;;;4241597;28;20545;-86
2023/05/01 02:38:38;;;;;;;8.27;3.78;;;8.00;99.90;;;;;;4273768;27;20034;-85
2023/05/01 02:40:46;;;;;;;9.30;3.15;;;8.00;99.90;;;;;;4281506;27;20045;-86
2023/05/01 02:42:48;;;;;;;5.40;3.25;;;8.00;99.90;;;;;;4279620;27;20034;-86
2023/05/01 02:45:09;;;;;;;7.32;4.20;;;8.00;99.90;;;;;;4282820;27;20155;-86
2023/05/01 02:47:16;;;;;;;8.43;3.35;;;8.00;99.90;;;;;;4233957;28;20119;-86
2023/05/01 02:49:17;;;;;;;7.07;3.22;;;7.90;99.90;;;;;;4266372;27;20050;-86
2023/05/01 02:51:22;;;;;;;8.07;3.50;;;7.90;99.90;;;;;;4276470;27;20509;-87
2023/05/01 02:53:23;;;;;;;16.17;3.83;;;7.90;99.90;;;;;;4281288;27;20046;-86
2023/05/01 02:55:25;;;;;;;9.38;3.50;;;7.80;99.90;;;;;;4246269;28;20131;-85
2023/05/01 02:57:27;;;;;;;7.65;3.35;;;7.90;99.90;;;;;;4280301;27;20042;-86
2023/05/01 02:59:28;;;;;;;7.97;3.28;;;7.80;99.90;;;;;;4281227;27;20482;-86
2023/05/01 03:01:28;;;;;;;10.25;4.15;;;7.80;99.90;;;;;;4268466;27;20038;-86
2023/05/01 03:03:30;;;;;;;7.63;3.70;;;7.70;99.90;;;;;;4274629;27;20390;-86
2023/05/01 03:05:31;;;;;;;8.40;4.38;;;7.70;99.90;;;;;;4282120;27;20137;-86
2023/05/01 03:07:34;;;;;;;8.57;3.65;;;7.70;99.90;;;;;;4279708;27;20478;-86
2023/05/01 03:09:35;;;;;;;9.77;4.05;;;7.70;99.90;;;;;;4262872;27;20114;-86
2023/05/01 03:11:36;;;;;;;8.77;4.10;;;7.70;99.90;;;;;;4279366;27;20046;-86
2023/05/01 03:13:38;;;;;;;7.53;4.20;;;7.60;99.90;;;;;;4255948;27;20426;-86
2023/05/01 03:15:39;;;;;;;5.80;3.58;;;7.60;99.90;;;;;;4261669;27;20108;-86
2023/05/01 03:17:40;;;;;;;5.53;3.20;;;7.60;99.90;;;;;;4262734;27;20065;-86
2023/05/01 03:19:41;;;;;;;11.27;3.70;;;7.70;99.90;;;;;;4264152;27;20043;-86
2023/05/01 03:21:43;;;;;;;8.20;3.80;;;7.90;99.90;;;;;;4262521;27;20070;-86
2023/05/01 03:23:43;;;;;;;9.63;3.88;;;7.60;99.90;;;;;;4263476;27;20059;-86
2023/05/01 03:25:45;;;;;;;5.70;3.33;;;7.60;99.90;;;;;;4244545;28;20094;-86
2023/05/01 03:27:48;;;;;;;8.60;4.32;;;8.10;99.90;;;;;;4264294;27;20076;-87
2023/05/01 03:29:51;;;;;;;7.82;4.00;;;7.60;99.90;;;;;;4263441;27;20066;-86
2023/05/01 03:31:52;;;;;;;8.13;3.60;;;7.50;99.90;;;;;;4266468;27;20049;-86
2023/05/01 03:33:54;;;;;;;10.35;3.70;;;7.50;99.90;;;;;;4262935;27;20031;-86
2023/05/01 03:36:02;;;;;;;12.02;4.95;;;7.60;99.90;;;;;;4253694;27;20039;-87
2023/05/01 03:38:03;;;;;;;11.97;4.20;;;7.50;99.90;;;;;;4254995;27;20038;-86
2023/05/01 03:40:04;;;;;;;6.35;3.40;;;7.50;99.90;;;;;;4253862;27;20289;-87
2023/05/01 03:42:07;;;;;;;12.15;4.18;;;7.40;99.90;;;;;;4237652;28;20055;-86
2023/05/01 03:44:07;;;;;;;7.45;3.63;;;8.20;99.90;;;;;;4261131;27;20039;-87
2023/05/01 03:46:08;;;;;;;8.95;3.67;;;7.40;99.90;;;;;;4269916;27;20031;-87
2023/05/01 03:48:09;;;;;;;8.50;4.10;;;6.60;99.90;;;;;;4270655;27;20037;-86
2023/05/01 03:50:13;;;;;;;7.72;3.58;;;7.40;99.90;;;;;;4269652;27;20112;-87
2023/05/01 03:52:14;;;;;;;10.82;4.05;;;7.30;99.90;;;;;;4269319;27;20123;-86
2023/05/01 03:54:16;;;;;;;9.23;4.55;;;7.40;99.90;;;;;;4268934;27;20027;-87
2023/05/01 03:56:16;;;;;;;9.52;4.00;;;7.30;99.90;;;;;;4229562;28;20056;-87
2023/05/01 03:58:18;;;;;;;6.68;3.47;;;7.40;99.90;;;;;;4235145;28;20510;-87
2023/05/01 04:00:19;;;;;;;10.95;4.10;;;7.50;99.90;;;;;;4254388;27;20083;-87
2023/05/01 04:02:20;;;;;;;8.40;3.83;;;7.20;99.90;;;;;;4255287;27;20452;-86
2023/05/01 04:04:22;;;;;;;7.05;3.30;;;7.30;99.90;;;;;;4219062;28;20047;-86
2023/05/01 04:06:22;;;;;;;9.68;3.90;;;7.10;99.90;;;;;;4219213;28;20069;-87
2023/05/01 04:08:24;;;;;;;6.07;3.10;;;7.60;99.90;;;;;;4253931;27;20518;-87
2023/05/01 04:10:26;;;;;;;7.45;3.70;;;7.10;99.90;;;;;;4254812;27;20043;-86
2023/05/01 04:12:27;;;;;;;7.78;3.38;;;7.10;99.90;;;;;;4252316;27;20047;-86
2023/05/01 04:14:28;;;;;;;11.30;4.07;;;8.00;99.90;;;;;;4252617;27;20036;-86
2023/05/01 04:16:29;;;;;;;5.57;3.45;;;6.70;99.90;;;;;;4251664;27;20046;-87
2023/05/01 04:18:31;;;;;;;7.18;4.18;;;7.10;99.90;;;;;;4251529;27;20043;-87
2023/05/01 04:20:32;;;;;;;8.05;3.47;;;7.10;99.90;;;;;;4251344;27;20088;-87
2023/05/01 04:22:33;;;;;;;10.13;4.15;;;7.10;99.90;;;;;;4251885;27;20391;-86
2023/05/01 04:24:35;;;;;;;7.70;4.00;;;6.10;99.90;;;;;;4251580;27;20042;-86
2023/05/01 04:26:38;;;;;;;8.90;4.00;;;7.00;99.90;;;;;;4252014;27;20040;-86
2023/05/01 04:28:40;;;;;;;6.82;3.90;;;8.00;99.90;;;;;;4252103;27;20426;-85
2023/05/01 04:30:42;;;;;;;8.40;3.72;;;7.00;99.90;;;;;;4252691;27;20039;-86
2023/05/01 04:32:44;;;;;;;6.53;4.28;;;7.80;99.90;;;;;;4233013;28;20028;-86
2023/05/01 04:34:45;;;;;;;8.35;3.53;;;7.00;99.90;;;;;;4252926;27;20043;-86
2023/05/01 04:36:47;;;;;;;7.90;3.50;;;7.00;99.90;;;;;;4252227;27;20046;-86
2023/05/01 04:38:48;;;;;;;8.50;3.90;;;7.00;99.90;;;;;;4252164;27;20498;-86
2023/05/01 04:40:49;;;;;;;9.48;3.63;;;7.10;99.90;;;;;;4231837;28;20051;-86
2023/05/01 04:42:50;;;;;;;7.72;3.80;;;7.00;99.90;;;;;;4250806;27;20035;-85
2023/05/01 04:44:52;;;;;;;6.50;4.05;;;7.00;99.90;;;;;;4251045;27;20051;-86
2023/05/01 04:46:54;;;;;;;8.95;4.20;;;7.80;99.90;;;;;;4215854;28;20039;-86
2023/05/01 04:48:55;;;;;;;14.02;3.92;;;7.00;99.90;;;;;;4235620;28;20129;-86
2023/05/01 04:50:57;;;;;;;7.82;3.65;;;7.10;99.90;;;;;;4246529;27;20451;-86
2023/05/01 04:52:58;;;;;;;8.88;3.65;;;8.00;99.90;;;;;;4251950;27;20050;-86
2023/05/01 04:54:58;;;;;;;9.70;4.47;;;7.10;99.90;;;;;;4251017;27;20046;-86
2023/05/01 04:56:59;;;;;;;5.88;3.25;;;7.10;99.90;;;;;;4233500;28;20550;-87
2023/05/01 04:59:00;;;;;;;7.40;3.75;;;7.10;99.90;;;;;;4242451;27;20450;-87
2023/05/01 05:01:01;;;;;;;9.15;3.78;;;8.10;99.90;;;;;;4234871;28;20114;-86
2023/05/01 05:03:02;;;;;;;9.25;3.85;;;6.70;99.90;;;;;;4239071;27;20387;-87
2023/05/01 05:05:02;;;;;;;6.30;4.05;;;7.20;99.90;;;;;;4232992;28;20051;-86
2023/05/01 05:07:03;;;;;;;10.70;4.38;;;7.20;99.90;;;;;;4245083;27;20044;-87
2023/05/01 05:09:05;;;;;;;8.02;4.07;;;7.30;99.90;;;;;;4233439;28;20047;-86
2023/05/01 05:11:06;;;;;;;11.98;5.40;;;7.30;99.90;;;;;;4234088;28;20039;-86
2023/05/01 05:13:09;;;;;;;9.10;4.22;;;7.40;99.90;;;;;;4234457;28;20043;-86
2023/05/01 05:15:15;;;;;;;7.35;3.58;;;8.40;99.90;;;;;;4235743;28;20036;-86
2023/05/01 05:17:16;;;;;;;12.35;4.43;;;7.50;99.90;;;;;;4248329;27;20147;-86
2023/05/01 05:19:17;;;;;;;11.27;4.10;;;8.10;99.90;;;;;;4251270;27;20399;-86
2023/05/01 05:21:18;;;;;;;9.50;4.30;;;7.60;99.90;;;;;;4250311;27;20050;-86
2023/05/01 05:23:18;;;;;;;13.05;4.82;;;7.70;99.90;;;;;;4231974;28;20051;-86
2023/05/01 05:25:20;;;;;;;6.75;4.03;;;7.70;99.90;;;;;;4233115;28;20053;-87
2023/05/01 05:27:21;;;;;;;7.93;4.10;;;7.80;99.90;;;;;;4234330;28;20484;-86
2023/05/01 05:29:21;;;;;;;6.47;3.78;;;7.80;99.90;;;;;;4232631;28;20118;-87
2023/05/01 05:31:22;;;;;;;9.65;4.20;;;8.20;99.90;;;;;;4234020;28;20153;-87
2023/05/01 05:33:24;;;;;;;10.07;4.50;;;8.00;99.90;;;;;;4231085;28;20087;-86
2023/05/01 05:35:24;;;;;;;7.40;4.53;;;8.00;99.90;;;;;;4226951;28;20066;-86
2023/05/01 05:37:26;;;;;;;7.90;4.53;;;8.00;99.90;;;;;;4231178;28;20043;-86
2023/05/01 05:39:27;;;;;;;6.50;3.92;;;8.10;99.90;;;;;;4237833;27;20035;-87
2023/05/01 05:41:28;;;;;;;12.23;4.32;;;8.10;99.90;;;;;;4250088;27;20047;-87
2023/05/01 05:43:29;;;;;;;10.35;5.43;;;7.20;99.90;;;;;;4236197;27;20092;-86
2023/05/01 05:45:33;;;;;;;10.27;4.95;;;8.30;99.90;;;;;;4233547;28;20044;-86
2023/05/01 05:47:35;;;;;;;7.25;4.47;;;8.30;99.90;;;;;;4231937;28;20044;-87
2023/05/01 05:49:37;;;;;;;11.57;4.65;;;8.40;99.90;;;;;;4233634;28;20093;-86
2023/05/01 05:51:38;;;;;;;9.10;4.97;;;8.40;99.90;;;;;;4228004;28;20047;-86
2023/05/01 05:53:39;;;;;;;8.38;4.55;;;8.50;99.90;;;;;;4232049;28;20364;-86
2023/05/01 05:55:42;;;;;;;11.70;4.28;;;8.50;99.90;;;;;;4230980;28;20074;-86
2023/05/01 05:57:42;;;;;;;14.40;5.85;;;8.50;99.90;;;;;;4233106;28;20046;-86
2023/05/01 05:59:44;;;;;;;8.48;4.20;;;8.60;99.90;;;;;;4227782;28;20040;-87
2023/05/01 06:01:46;;;;;;;10.93;4.65;;;8.60;99.90;;;;;;4218534;28;20066;-87
2023/05/01 06:03:46;;;;;;;11.10;4.82;;;8.70;99.90;;;;;;4218464;28;20495;-87
2023/05/01 06:05:48;;;;;;;10.35;4.68;;;8.70;99.90;;;;;;4233490;28;20043;-87
2023/05/01 06:07:48;;;;;;;9.77;4.85;;;8.70;99.90;;;;;;4232751;28;20039;-87
2023/05/01 06:09:49;;;;;;;12.18;4.78;;;8.80;99.90;;;;;;4231828;28;20477;-87
2023/05/01 06:11:50;;;;;;;11.55;4.80;;;8.90;99.90;;;;;;4232146;28;20066;-87
2023/05/01 06:13:50;;;;;;;10.00;5.15;;;9.00;99.90;;;;;;4232098;28;20043;-87
2023/05/01 06:15:51;;;;;;;13.90;4.25;;;9.00;99.90;;;;;;4232763;28;20461;-87
2023/05/01 06:17:53;;;;;;;9.50;4.13;;;9.00;99.90;;;;;;4230681;28;20073;-88
2023/05/01 06:19:54;;;;;;;9.73;5.03;;;9.10;99.90;;;;;;4232794;28;20051;-89
2023/05/01 06:21:56;;;;;;;11.05;4.90;;;9.20;99.90;;;;;;4232329;28;20035;-87
2023/05/01 06:23:57;;;;;;;9.63;4.50;;;9.20;99.90;;;;;;4230168;28;20060;-87
2023/05/01 06:25:57;;;;;;;8.20;4.38;;;9.30;99.90;;;;;;4231626;28;20028;-87
2023/05/01 06:27:58;;;;;;;18.02;4.82;;;9.40;99.90;;;;;;4233031;28;20043;-87
2023/05/01 06:30:06;;;;;;;9.45;4.82;;;9.40;99.90;;;;;;4228752;28;20094;-87
2023/05/01 06:32:06;;;;;;;8.82;4.35;;;9.50;99.90;;;;;;4215661;28;20055;-87
2023/05/01 06:34:07;;;;;;;13.15;4.60;;;9.60;99.90;;;;;;4217006;28;20400;-87
2023/05/01 06:36:08;;;;;;;11.32;4.35;;;9.60;99.90;;;;;;4233844;28;20051;-86
2023/05/01 06:38:09;;;;;;;10.73;4.93;;;9.80;99.90;;;;;;4231073;28;20480;-87
2023/05/01 06:40:11;;;;;;;10.60;5.35;;;9.80;99.90;;;;;;4231751;28;20400;-87
2023/05/01 06:42:14;;;;;;;8.82;4.63;;;9.90;99.90;;;;;;4232373;28;20131;-86
2023/05/01 06:44:15;;;;;;;12.60;4.70;;;9.90;99.90;;;;;;4230713;28;20044;-86
2023/05/01 06:46:16;;;;;;;10.52;5.07;;;10.00;99.90;;;;;;4232434;28;20051;-86
2023/05/01 06:48:18;;;;;;;11.90;4.88;;;10.00;99.90;;;;;;4231375;28;20466;-87
2023/05/01 06:50:20;;;;;;;9.95;4.57;;;10.10;99.90;;;;;;4231284;28;20062;-87
2023/05/01 06:52:23;;;;;;;10.55;4.82;;;10.20;99.90;;;;;;4231231;28;20051;-86
2023/05/01 06:54:25;;;;;;;10.90;4.35;;;10.30;99.90;;;;;;4232914;28;20052;-87
2023/05/01 06:56:27;;;;;;;13.40;5.50;;;10.40;99.90;;;;;;4226214;28;20043;-87
2023/05/01 06:58:28;;;;;;;10.35;5.10;;;10.50;99.90;;;;;;4214819;28;20044;-87
2023/05/01 07:00:29;;;;;;;15.85;5.82;;;10.70;99.90;;;;;;4215636;28;20127;-87
2023/05/01 07:02:30;;;;;;;11.60;5.10;;;10.80;99.90;;;;;;4231051;28;20044;-87
2023/05/01 07:04:31;;;;;;;9.65;4.82;;;10.80;99.90;;;;;;4232470;28;20079;-87
2023/05/01 07:06:32;;;;;;;9.07;4.85;;;10.90;99.90;;;;;;4230676;28;20054;-86
2023/05/01 07:08:33;;;;;;;8.75;4.28;;;10.90;99.90;;;;;;4232261;28;20119;-86
2023/05/01 07:10:34;;;;;;;11.80;4.63;;;10.90;99.90;;;;;;4233662;28;20096;-87
2023/05/01 07:12:36;;;;;;;12.30;4.90;;;11.00;99.90;;;;;;4234415;28;20510;-88
2023/05/01 07:14:37;;;;;;;12.18;4.43;;;11.10;99.90;;;;;;4235968;28;20055;-87
2023/05/01 07:16:37;;;;;;;9.82;4.85;;;10.70;99.90;;;;;;4234608;28;20044;-87
2023/05/01 07:18:39;;;;;;;12.45;4.63;;;11.20;99.90;;;;;;4236578;28;20059;-88
2023/05/01 07:20:40;;;;;;;10.10;4.32;;;11.40;99.90;;;;;;4227062;28;20075;-88
2023/05/01 07:22:41;;;;;;;14.18;5.47;;;11.30;99.90;;;;;;4200459;28;20128;-88
2023/05/01 07:24:42;;;;;;;11.48;4.93;;;11.40;99.90;;;;;;4224604;28;20043;-88
2023/05/01 07:26:43;;;;;;;9.70;4.35;;;11.40;99.90;;;;;;4235506;28;20052;-88
2023/05/01 07:28:45;;;;;;;9.43;4.05;;;11.50;99.90;;;;;;4233625;28;20047;-87
2023/05/01 07:30:45;;;;;;;11.73;4.80;;;11.60;99.90;;;;;;4233116;28;20059;-88
2023/05/01 07:32:46;;;;;;;7.88;3.75;;;11.70;99.90;;;;;;4231687;28;20043;-88
2023/05/01 07:34:47;;;;;;;14.48;5.47;;;11.90;99.90;;;;;;4216748;28;20462;-88
2023/05/01 07:36:47;;;;;;;10.98;4.05;;;12.00;99.90;;;;;;4231794;28;20455;-87
2023/05/01 07:38:48;;;;;;;11.60;4.63;;;12.20;99.90;;;;;;4233535;28;20083;-88
2023/05/01 07:40:52;;;;;;;9.43;4.00;;;12.40;99.90;;;;;;4233588;28;20085;-88
2023/05/01 07:42:53;;;;;;;7.45;4.32;;;12.70;99.90;;;;;;4218389;28;20048;-88
2023/05/01 07:44:53;;;;;;;8.07;3.95;;;12.90;99.90;;;;;;4232975;28;20441;-85
2023/05/01 07:46:54;;;;;;;10.82;4.22;;;13.20;99.90;;;;;;4236446;28;20449;-87
2023/05/01 07:48:55;;;;;;;7.43;4.55;;;13.30;99.90;;;;;;4235105;28;20047;-87
2023/05/01 07:50:55;;;;;;;8.73;4.00;;;13.40;99.90;;;;;;4235934;28;20043;-86
2023/05/01 07:52:56;;;;;;;13.30;4.82;;;13.60;99.90;;;;;;4235131;28;20069;-87
2023/05/01 07:54:57;;;;;;;10.30;4.63;;;13.70;99.90;;;;;;4235252;28;20055;-87
2023/05/01 07:57:00;;;;;;;7.55;4.47;;;13.90;99.90;;;;;;4230742;28;20039;-87
2023/05/01 07:59:02;;;;;;;11.07;4.15;;;14.10;99.90;;;;;;4218278;28;20480;-88
2023/05/01 08:01:05;;;;;;;7.72;3.20;;;14.30;99.90;;;;;;4218447;28;20053;-87
2023/05/01 08:03:06;;;;;;;7.63;3.65;;;14.50;99.90;;;;;;4235184;28;20044;-87
2023/05/01 08:05:08;;;;;;;11.05;3.88;;;;;;;;;;4235125;28;20039;-87
2023/05/01 08:07:09;;;;;;;5.93;2.65;;;;;;;;;;4234721;28;20040;-87
2023/05/01 08:09:10;;;;;;;5.80;3.30;;;;;;;;;;4235616;28;20062;-87
2023/05/01 08:11:12;;;;;;;6.15;3.22;;;;;;;;;;4233461;28;20075;-87
2023/05/01 08:13:14;;;;;;;7.32;2.80;;;;;;;;;;4218652;28;20055;-88
2023/05/01 08:15:16;;;;;;;6.50;3.17;;;;;;;;;;4219747;28;20036;-87
2023/05/01 08:17:17;;;;;;;7.32;3.28;;;;;;;;;;4225469;28;20118;-87
2023/05/01 08:19:18;;;;;;;7.43;3.13;;;;;;;;;;4234154;28;20035;-87
2023/05/01 08:21:20;;;;;;;6.82;3.90;;;;;;;;;;4234077;28;20040;-87
2023/05/01 08:23:23;;;;;;;9.75;3.05;;;;;;;;;;4242675;27;20097;-87
2023/05/01 08:25:25;;;;;;;9.57;3.45;;;;;;;;;;4251570;27;20050;-87
2023/05/01 08:27:26;;;;;;;7.82;3.30;;;;;;;;;;4250829;27;20068;-87
2023/05/01 08:29:27;;;;;;;10.40;4.25;;;;;;;;;;4233999;28;20377;-87
2023/05/01 08:31:28;;;;;;;10.50;3.75;;;;;;;;;;4250819;27;20076;-87
2023/05/01 08:33:30;;;;;;;9.15;4.10;;;;;;;;;;4252137;27;20051;-87
2023/05/01 08:35:31;;;;;;;7.63;2.90;;;;;;;;;;4250229;27;20043;-86
2023/05/01 08:37:32;;;;;;;12.20;3.50;;;;;;;;;;4251569;27;20042;-87
2023/05/01 08:39:35;;;;;;;10.38;3.33;;;;;;;;;;4250502;27;20043;-87
2023/05/01 08:41:38;;;;;;;6.43;3.17;;;;;;;;;;4251239;27;20043;-87
2023/05/01 08:43:39;;;;;;;10.43;3.88;;;;;;;;;;4250931;27;20039;-86
2023/05/01 08:45:42;;;;;;;7.85;2.80;;;;;;;;;;4251363;27;20131;-86
2023/05/01 08:47:43;;;;;;;6.30;2.95;;;;;;;;;;4232423;28;20057;-87
2023/05/01 08:49:47;;;;;;;5.90;2.95;;;;;;;;;;4252058;27;20044;-88
2023/05/01 08:51:51;;;;;;;10.05;3.85;;;;;;;;;;4250450;27;20090;-86
2023/05/01 08:53:53;;;;;;;5.28;2.42;;;;;;;;;;4252795;27;20506;-87
2023/05/01 08:55:58;;;;;;;7.20;2.60;;;;;;;;;;4235232;28;20047;-87
2023/05/01 08:57:59;;;;;;;7.55;3.15;;;;;;;;;;4250797;27;20096;-86
2023/05/01 09:00:01;;;;;;;9.82;3.40;;;;;;;;;;4251379;27;20114;-87
2023/05/01 09:02:03;;;;;;;7.25;3.03;;;;;;;;;;4251792;27;20573;-87
2023/05/01 09:04:05;;;;;;;11.38;3.35;;;;;;;;;;4249523;27;20023;-87
2023/05/01 09:06:06;;;;;;;8.25;3.03;;;;;;;;;;4251662;27;20058;-87
2023/05/01 09:08:07;;;;;;;6.72;3.00;;;;;;;;;;4250383;27;20043;-88
2023/05/01 09:10:09;;;;;;;10.57;3.47;;;;;;;;;;4250923;27;20043;-88
2023/05/01 09:12:10;;;;;;;7.15;2.60;;;;;;;;;;4250931;27;20558;-87
2023/05/01 09:14:11;;;;;;;9.80;2.40;;;;;;;;;;4233390;28;20051;-87
2023/05/01 09:16:16;;;;;;;5.80;1.88;;;;;;;;;;4251419;27;20069;-88
2023/05/01 09:18:22;;;;;;;5.88;2.00;;;;;;;;;;4250951;27;20027;-87
2023/05/01 09:20:23;;;;;;;3.58;2.05;;;;;;;;;;4250786;27;20495;-88
2023/05/01 09:22:25;;;;;;;6.50;2.67;;;;;;;;;;4250757;27;20039;-88
2023/05/01 09:24:26;;;;;;;6.25;2.10;;;;;;;;;;4250667;27;20058;-88
2023/05/01 09:26:27;;;;;;;6.45;2.70;;;;;;;;;;4250731;27;20043;-87
2023/05/01 09:28:43;;;;;;;4.18;1.50;;;;;;;;;;4251170;27;20079;-87
2023/05/01 09:30:45;;;;;;;4.68;2.00;;;;;;;;;;4236728;27;20048;-87
2023/05/01 09:32:46;;;;;;;4.47;1.98;;;;;;;;;;4234324;28;20043;-86
2023/05/01 09:34:48;;;;;;;5.38;1.80;;;;;;;;;;4227153;28;20118;-87
2023/05/01 09:36:49;;;;;;;3.60;1.80;;;;;;;;;;4251070;27;20095;-88
2023/05/01 09:38:52;;;;;;;5.10;1.88;;;;;;;;;;4239143;27;20071;-87
2023/05/01 09:40:55;;;;;;;6.57;2.50;;;;;;;;;;4267688;27;20133;-87
2023/05/01 09:42:58;;;;;;;8.50;1.92;;;;;;;;;;4258665;27;20035;-87
2023/05/01 09:45:00;;;;;;;6.25;3.08;;;;;;;;;;4250323;27;20043;-86
2023/05/01 09:47:02;;;;;;;5.20;1.88;;;;;;;;;;4250554;27;20475;-87
2023/05/01 09:49:03;;;;;;;11.27;2.53;;;;;;;;;;4251663;27;20376;-87
2023/05/01 09:51:22;;;;;;;9.68;2.13;;;;;;;;;;4250235;27;20043;-88
2023/05/01 09:53:36;;;;;;;6.22;2.60;;;;;;;;;;4251702;27;20066;-88
2023/05/01 09:55:38;;;;;;;7.93;1.95;;;;;;;;;;4249269;27;20100;-88
2023/05/01 09:57:39;;;;;;;6.90;1.77;;;14.60;99.90;;;;;;4250593;27;20035;-88
2023/05/01 09:59:40;;;;;;;5.03;2.47;;;22.80;65.90;;;;;;4237423;27;20480;-88
2023/05/01 10:01:42;;;;;;;4.75;1.55;;;22.80;64.50;;;;;;4230600;28;20085;-88
2023/05/01 10:03:53;;;;;;;6.47;1.60;;;22.90;63.50;;;;;;4240632;27;20543;-89
2023/05/01 10:05:55;;;;;;;3.63;1.42;;;22.80;61.50;;;;;;4216024;28;20048;-89
2023/05/01 10:08:01;;;;;;;3.80;1.70;;;22.90;62.90;;;;;;4241644;27;20035;-89
2023/05/01 10:10:18;;;;;;;5.70;1.50;;;23.10;62.00;;;;;;4252243;27;20441;-89
2023/05/01 10:12:27;;;;;;;2.65;0.80;;;23.20;60.70;;;;;;4250635;27;20039;-88
2023/05/01 10:14:30;;;;;;;2.92;1.17;;;23.50;59.30;;;;;;4233405;28;20050;-89
2023/05/01 10:16:31;;;;;;;2.90;1.17;;;;;;;;;;4250976;27;20096;-89
2023/05/01 10:18:34;;;;;;;3.60;1.40;;;23.70;59.40;;;;;;4250644;27;20511;-89
2023/05/01 10:20:35;;;;;;;5.28;1.23;;;23.90;58.50;;;;;;4250767;27;20120;-89
2023/05/01 10:22:36;;;;;;;4.68;1.63;;;;;;;;;;4250242;28;20039;-88
2023/05/01 10:24:38;;;;;;;4.03;1.63;;;;;;;;;;4249546;28;20051;-89
2023/05/01 10:26:41;;;;;;;4.45;1.42;;;;;;;;;;4252137;28;20051;-88
2023/05/01 10:28:43;;;;;;;4.38;1.75;;;;;;;;;;4252048;28;20615;-88
2023/05/01 10:30:45;;;;;;;5.57;1.60;;;;;;;;;;4233581;28;20563;-88
2023/05/01 10:32:51;;;;;;;4.80;1.60;;;;;;;;;;4249328;28;20067;-89
2023/05/01 10:34:58;;;;;;;2.95;1.85;;;;;;;;;;4232266;28;20047;-89
2023/05/01 10:37:09;;;;;;;6.53;1.38;;;;;;;;;;4250190;28;20035;-89
2023/05/01 10:39:31;;;;;;;5.97;1.83;;;;;;;;;;4250108;28;20039;-89
2023/05/01 10:41:53;;;;;;;6.05;1.90;;;;;;;;;;4249598;28;20109;-89
2023/05/01 10:44:15;;;;;;;7.15;1.92;;;;;;;;;;4234094;28;20091;-89
2023/05/01 10:46:17;;;;;;;3.83;2.30;;;;;;;;;;4238863;27;20047;-88
2023/05/01 10:48:44;;;;;;;7.75;2.10;;;;;;;;;;4235623;28;20047;-89
2023/05/01 10:51:04;;;;;;;5.35;2.28;;;;;;;;;;4232858;28;20914;-89
2023/05/01 10:53:11;;;;;;;5.45;2.42;;;;;;;;;;4242268;27;20122;-89
2023/05/01 10:55:31;;;;;;;5.63;2.20;;;;;;;;;;4246029;27;20089;-89
2023/05/01 10:57:42;;;;;;;3.97;1.73;;;;;;;;;;4227211;28;20047;-88
2023/05/01 11:00:00;;;;;;;6.80;3.13;;;;;;;;;;4251952;27;20096;-89
2023/05/01 11:02:20;;;;;;;2.58;1.40;;;;;;;;;;4254773;27;20043;-89
2023/05/01 11:04:21;;;;;;;3.50;1.75;;;;;;;;;;4241891;27;20480;-89
2023/05/01 11:06:30;;;;;;;4.32;2.05;;;;;;;;;;4236230;28;20427;-90